Latest Weather Observations for Coondewanna

IDW60801

Issued at 10:03 pm WST Tuesday 12 December 2017 (issued every 30 minutes, with the page automatically refreshed every 10 minutes)

About weather observations | Map of weather stations | Latest weather observations for WA | Other Formats
Station Details ID: 505051 Name: COONDEWANNA Lat: -22.96 Lon: 118.81 Height: 697.63 m
Data from the previous 72 hours. | See also: Recent months for locations in Western Australia
Date/Time
WST
Temp
°C
App
Temp
°C
Dew
Point
°C
Rel
Hum
%
Delta-T
°C
Wind Press
QNH
hPa
Press
MSL
hPa
Rain since
9am
mm
Dir  Spd
km/h
Gust
km/h
Spd
kts
Gust
kts
12/10:00pm 30.3 27.8 8.1 25 12.6 W 11 17 6 9 1013.5 1007.4 0.0
12/09:30pm 30.6 28.5 8.3 25 12.7 WSW 9 15 5 8 1013.3 1007.1 0.0
12/09:00pm 31.4 28.9 8.4 24 13.2 W 11 19 6 10 1012.9 1006.7 0.0
12/08:30pm 32.2 29.4 8.4 23 13.7 WSW 13 17 7 9 1012.6 1006.4 0.0
12/08:00pm 33.2 29.5 7.9 21 14.5 NW 17 24 9 13 1012.3 1006.1 0.0
12/07:30pm 33.7 30.5 6.9 19 15.1 NW 13 24 7 13 1011.8 1005.6 0.0
12/07:00pm 34.5 30.5 6.7 18 15.7 WNW 17 24 9 13 1011.4 1005.2 0.0
12/06:30pm 35.2 30.8 7.3 18 16.0 NW 20 32 11 17 1011.1 1004.9 0.0
12/06:00pm 36.1 31.6 6.3 16 16.9 WNW 19 33 10 18 1010.8 1004.6 0.0
12/05:30pm 36.7 31.0 6.8 16 17.1 WNW 26 35 14 19 1010.6 1004.3 0.0
12/05:00pm 37.4 31.6 6.4 15 17.7 NW 26 39 14 21 1010.4 1004.2 0.0
12/04:30pm 38.3 32.8 6.1 14 18.3 NW 24 37 13 20 1010.4 1004.2 0.0
12/04:00pm 37.2 31.2 5.3 14 17.9 NW 26 39 14 21 1010.7 1004.4 0.0
12/03:30pm 37.1 31.3 6.2 15 17.5 NW 26 39 14 21 1010.8 1004.6 0.0
12/03:00pm 38.8 33.8 6.5 14 18.6 NNW 22 37 12 20 1011.0 1004.8 0.0
12/02:30pm 37.7 32.7 6.6 15 17.8 NW 22 35 12 19 1011.2 1005.0 0.0
12/02:00pm 37.2 31.6 7.2 16 17.3 WNW 26 43 14 23 1011.6 1005.4 0.0
12/01:35pm 38.2 32.4 8.0 16 17.7 WNW 28 69 15 37 1011.7 1005.5 0.0
12/01:30pm 38.0 32.3 6.9 15 17.9 WNW 26 69 14 37 1011.7 1005.5 0.0
12/01:00pm 36.9 32.0 7.0 16 17.2 WNW 22 35 12 19 1012.3 1006.1 0.0
12/12:30pm 36.5 31.6 8.4 18 16.4 WNW 24 39 13 21 1012.6 1006.4 0.0
12/12:00pm 36.1 31.3 10.3 21 15.5 NW 26 39 14 21 1013.2 1007.0 0.0
12/11:55am 36.5 31.2 9.9 20 15.9 NW 28 46 15 25 1013.3 1007.1 0.0
12/11:30am 36.0 32.5 10.2 21 15.5 NW 19 33 10 18 1013.5 1007.4 0.0
12/11:00am 34.7 30.3 10.5 23 14.5 WNW 24 35 13 19 1014.0 1007.8 0.0
12/10:30am 33.7 30.8 10.9 25 13.7 NW 17 35 9 19 1014.3 1008.1 0.0
12/10:00am 32.8 30.9 11.9 28 12.7 WNW 13 28 7 15 1014.8 1008.7 0.0
12/09:30am 31.3 29.9 12.2 31 11.6 WNW 11 20 6 11 1015.2 1009.0 0.0
12/09:00am 30.4 28.7 12.3 33 10.9 W 13 20 7 11 1015.5 1009.3 0.0
12/08:30am 29.8 28.8 12.3 34 10.6 WNW 9 17 5 9 1015.6 1009.4 0.0
12/08:00am 28.6 27.8 11.6 34 10.1 WSW 7 17 4 9 1015.7 1009.5 0.0
12/07:30am 27.3 25.9 10.9 36 9.6 W 9 15 5 8 1015.8 1009.6 0.0
12/07:00am 26.9 24.8 11.0 37 9.3 WSW 13 19 7 10 1015.8 1009.6 0.0
12/06:30am 26.0 24.1 10.6 38 8.9 WSW 11 19 6 10 1015.6 1009.4 0.0
12/06:00am 24.5 23.8 11.5 44 7.6 WNW 6 13 3 7 1015.3 1009.1 0.0
12/05:30am 22.4 23.0 11.8 51 6.1 CALM 0 0 0 0 1014.9 1008.8 0.0
12/05:00am 22.6 23.4 12.5 53 5.9 CALM 0 0 0 0 1014.6 1008.4 0.0
12/04:30am 23.0 23.9 12.9 53 6.0 CALM 0 0 0 0 1014.4 1008.2 0.0
12/04:00am 23.8 23.6 13.1 51 6.4 NNW 6 9 3 5 1014.2 1008.0 0.0
12/03:30am 23.8 24.9 13.4 52 6.2 CALM 0 0 0 0 1014.0 1007.8 0.0
12/03:00am 24.9 25.0 13.8 50 6.7 N 6 7 3 4 1013.8 1007.6 0.0
12/02:30am 25.2 26.4 13.7 49 7.0 CALM 0 0 0 0 1013.8 1007.6 0.0
12/02:00am 26.3 26.0 14.4 48 7.3 NNW 9 11 5 6 1013.7 1007.5 0.0
12/01:30am 26.8 26.4 14.2 46 7.7 N 9 15 5 8 1013.7 1007.5 0.0
12/01:00am 27.5 26.8 14.2 44 8.2 NNW 11 17 6 9 1013.8 1007.6 0.0
12/12:30am 28.1 26.2 14.3 42 8.5 N 17 22 9 12 1014.0 1007.8 0.0
12/12:00am 27.9 27.4 13.8 42 8.6 NNW 9 13 5 7 1014.1 1007.9 0.0
 
Date/Time
WST
Temp
°C
App
Temp
°C
Dew
Point
°C
Rel
Hum
%
Delta-T
°C
Wind Press
QNH
hPa
Press
MSL
hPa
Rain since
9am
mm
Dir  Spd
km/h
Gust
km/h
Spd
kts
Gust
kts
11/11:30pm 28.7 27.7 13.4 39 9.4 NNW 11 15 6 8 1014.3 1008.1 0.0
11/11:00pm 29.6 27.9 12.5 35 10.3 N 13 20 7 11 1014.4 1008.2 0.0
11/10:30pm 30.1 28.1 11.6 32 11.1 NNW 13 19 7 10 1014.7 1008.5 0.0
11/10:00pm 30.6 28.5 11.1 30 11.6 NNW 13 20 7 11 1014.7 1008.5 0.0
11/09:30pm 31.1 28.6 11.0 29 12.0 NNW 15 20 8 11 1014.6 1008.4 0.0
11/09:00pm 31.4 29.2 10.7 28 12.3 NNW 13 20 7 11 1014.4 1008.2 0.0
11/08:30pm 31.9 29.3 10.6 27 12.6 NNW 15 24 8 13 1014.3 1008.1 0.0
11/08:00pm 32.5 29.1 10.5 26 13.1 NNW 19 28 10 15 1014.1 1007.9 0.0
11/07:30pm 32.9 29.1 9.7 24 13.6 NNW 20 30 11 16 1013.5 1007.4 0.0
11/07:00pm 33.3 28.6 9.4 23 14.0 NW 24 35 13 19 1013.2 1007.0 0.0
11/06:30pm 34.1 29.4 9.4 22 14.5 NNW 24 35 13 19 1012.7 1006.5 0.0
11/06:00pm 34.9 29.8 9.3 21 15.1 NNW 26 39 14 21 1012.4 1006.2 0.0
11/05:30pm 36.1 31.5 9.6 20 15.7 NNW 24 37 13 20 1011.9 1005.7 0.0
11/05:00pm 36.6 32.3 9.2 19 16.2 N 22 41 12 22 1011.8 1005.6 0.0
11/04:30pm 36.6 31.0 10.0 20 15.9 N 30 43 16 23 1011.6 1005.4 0.0
11/04:00pm 37.0 32.6 10.3 20 16.1 NNW 24 39 13 21 1011.6 1005.4 0.0
11/03:30pm 36.7 31.7 10.8 21 15.7 N 28 46 15 25 1011.8 1005.6 0.0
11/03:29pm 37.0 32.0 11.1 21 15.8 N 28 46 15 25 1011.8 1005.6 0.0
11/03:00pm 36.7 31.5 10.1 20 16.0 N 28 43 15 23 1011.9 1005.7 0.0
11/02:30pm 37.7 32.8 10.1 19 16.6 NNW 26 44 14 24 1011.9 1005.7 0.0
11/02:11pm 37.2 32.1 10.5 20 16.1 NNW 28 50 15 27 1012.2 1006.0 0.0
11/02:00pm 36.6 32.3 10.7 21 15.7 N 24 39 13 21 1012.3 1006.1 0.0
11/01:30pm 37.0 32.2 10.3 20 16.1 NNW 26 41 14 22 1012.6 1006.4 0.0
11/01:16pm 36.3 31.4 11.2 22 15.3 N 28 46 15 25 1012.8 1006.6 0.0
11/01:00pm 35.9 30.9 10.9 22 15.1 N 28 41 15 22 1013.1 1006.9 0.0
11/12:30pm 35.8 30.4 10.8 22 15.1 NNW 30 50 16 27 1013.4 1007.3 0.0
11/12:12pm 36.0 30.6 10.9 22 15.2 NNW 30 48 16 26 1013.7 1007.5 0.0
11/12:00pm 36.0 31.7 10.9 22 15.2 N 24 44 13 24 1013.8 1007.6 0.0
11/11:30am 35.8 32.6 11.4 23 14.9 N 19 43 10 23 1014.1 1007.9 0.0
11/11:00am 34.3 31.3 12.0 25 13.6 NNE 19 41 10 22 1014.6 1008.4 0.0
11/10:30am 33.3 30.4 12.3 28 12.8 NNE 19 26 10 14 1015.2 1009.0 0.0
11/10:00am 33.2 31.4 12.2 28 12.8 NE 13 26 7 14 1015.5 1009.3 0.0
11/09:30am 31.5 29.8 11.3 29 12.1 E 11 22 6 12 1015.8 1009.6 0.0
11/09:00am 30.5 28.5 11.5 31 11.4 ENE 13 19 7 10 1016.1 1010.0 0.0
11/08:30am 30.2 28.9 11.2 31 11.3 ESE 9 20 5 11 1016.2 1010.1 0.0
11/08:00am 29.2 28.3 10.8 32 10.8 SSE 6 9 3 5 1016.2 1010.1 0.0
11/07:30am 28.3 27.3 10.9 34 10.2 SSW 7 13 4 7 1016.3 1010.2 0.0
11/07:00am 27.0 25.2 10.7 36 9.5 SW 11 15 6 8 1016.1 1010.0 0.0
11/06:30am 25.8 24.0 10.8 39 8.7 SW 11 15 6 8 1016.0 1009.8 0.0
11/06:00am 24.9 23.9 12.2 45 7.5 SSW 9 13 5 7 1015.7 1009.5 0.0
11/05:30am 24.6 23.9 11.9 45 7.5 SSW 7 11 4 6 1015.3 1009.1 0.0
11/05:00am 23.7 23.0 14.4 56 5.7 SSW 11 13 6 7 1014.7 1008.5 0.0
11/04:30am 24.3 25.4 13.5 51 6.5 CALM 0 0 0 0 1014.2 1008.0 0.0
11/04:00am 25.1 26.5 14.3 51 6.6 CALM 0 0 0 0 1014.2 1008.0 0.0
11/03:30am 25.5 25.8 14.6 51 6.7 N 6 9 3 5 1014.1 1007.9 0.0
11/03:00am 26.5 26.4 14.9 49 7.2 NNW 9 11 5 6 1014.1 1007.9 0.0
11/02:30am 27.0 26.2 15.1 48 7.4 NNW 13 17 7 9 1014.0 1007.8 0.0
11/02:00am 27.3 27.1 14.7 46 7.8 N 9 13 5 7 1014.0 1007.8 0.0
11/01:30am 27.6 27.8 14.3 44 8.2 N 6 9 3 5 1014.1 1007.9 0.0
11/01:00am 28.2 28.2 13.7 41 8.9 ENE 6 9 3 5 1014.2 1008.0 0.0
11/12:30am 28.8 28.2 13.5 39 9.4 ESE 9 13 5 7 1014.4 1008.2 0.0
11/12:00am 28.9 29.9 13.2 38 9.6 CALM 0 2 0 1 1014.6 1008.4 0.0
 
Date/Time
WST
Temp
°C
App
Temp
°C
Dew
Point
°C
Rel
Hum
%
Delta-T
°C
Wind Press
QNH
hPa
Press
MSL
hPa
Rain since
9am
mm
Dir  Spd
km/h
Gust
km/h
Spd
kts
Gust
kts
10/11:30pm 29.2 27.9 12.6 36 10.0 N 11 17 6 9 1014.8 1008.7 0.0
10/11:00pm 29.4 27.1 11.9 34 10.5 N 15 20 8 11 1015.0 1008.9 0.0
10/10:30pm 29.3 27.5 10.9 32 10.8 N 11 13 6 7 1015.2 1009.0 0.0
10/10:00pm 30.2 28.5 11.2 31 11.3 N 11 15 6 8 1015.0 1008.9 0.0
10/09:30pm 30.6 28.9 11.1 30 11.6 NNW 11 13 6 7 1014.9 1008.8 0.0
10/09:00pm 31.3 28.8 11.1 29 12.0 N 15 20 8 11 1014.8 1008.7 0.0
10/08:30pm 31.9 29.4 11.1 28 12.4 N 15 20 8 11 1014.5 1008.3 0.0
10/08:00pm 32.2 29.2 10.8 27 12.7 N 17 22 9 12 1014.2 1008.0 0.0
10/07:30pm 32.7 29.7 10.7 26 13.1 N 17 28 9 15 1013.8 1007.6 0.0
10/07:00pm 33.1 29.5 10.4 25 13.5 N 20 33 11 18 1013.3 1007.1 0.0
10/06:30pm 33.8 29.8 10.4 24 13.9 N 22 33 12 18 1012.9 1006.7 0.0
10/06:00pm 34.6 30.6 10.4 23 14.5 N 22 33 12 18 1012.5 1006.3 0.0
10/05:30pm 35.3 31.3 10.4 22 14.9 N 22 33 12 18 1012.1 1005.8 0.0
10/05:00pm 35.9 31.4 11.5 23 14.9 NNE 26 41 14 22 1011.7 1005.5 0.0
10/04:30pm 36.1 31.7 11.7 23 14.9 N 26 39 14 21 1011.6 1005.4 0.0
10/04:00pm 36.3 31.4 11.2 22 15.3 N 28 39 15 21 1011.5 1005.3 0.0
10/03:45pm 36.7 31.9 11.5 22 15.4 N 28 48 15 26 1011.4 1005.2 0.0
10/03:30pm 37.3 32.6 10.6 20 16.2 NNW 26 41 14 22 1011.5 1005.3 0.0
10/03:00pm 37.5 33.6 12.2 22 15.7 N 24 35 13 19 1011.4 1005.2 0.0
10/02:37pm 36.8 32.0 11.6 22 15.5 N 28 54 15 29 1011.5 1005.3 0.0
10/02:30pm 37.3 33.5 11.3 21 15.9 N 22 37 12 20 1011.4 1005.2 0.0
10/02:00pm 36.2 32.6 11.8 23 15.0 N 22 35 12 19 1011.7 1005.5 0.0
10/01:30pm 36.4 32.7 12.6 24 14.8 NNE 24 35 13 19 1012.1 1005.8 0.0
10/01:00pm 36.9 33.1 12.4 23 15.2 N 24 35 13 19 1012.3 1006.1 0.0
10/12:30pm 36.0 31.0 12.3 24 14.6 NNE 30 43 16 23 1012.5 1006.3 0.0
10/12:00pm 36.5 32.8 12.7 24 14.8 N 24 41 13 22 1012.7 1006.5 0.0
10/11:30am 36.1 32.5 13.0 25 14.4 NNE 24 39 13 21 1012.8 1006.6 0.0
10/11:00am 35.1 32.0 13.3 27 13.6 N 22 35 12 19 1013.2 1007.0 0.0
10/10:30am 34.3 31.3 12.6 27 13.4 N 20 35 11 19 1013.4 1007.3 0.0
10/10:00am 33.2 30.6 13.3 30 12.3 NNE 19 30 10 16 1013.9 1007.7 0.0
10/09:30am 33.2 32.2 13.3 30 12.3 N 11 20 6 11 1014.0 1007.8 0.0
10/09:00am 32.1 31.1 13.3 31 11.6 NNE 11 26 6 14 1014.2 1008.0 0.0
10/08:30am 30.5 30.1 14.2 37 10.1 E 9 17 5 9 1014.4 1008.2 0.0
10/08:00am 29.5 30.2 14.5 40 9.4 WSW 4 7 2 4 1014.1 1007.9 0.0
10/07:30am 28.8 28.6 14.6 42 8.8 SW 9 17 5 9 1013.9 1007.7 0.0
10/07:00am 27.8 26.5 14.8 45 8.1 WSW 15 20 8 11 1013.5 1007.4 0.0
10/06:30am 27.0 26.0 14.7 47 7.6 SW 13 20 7 11 1013.2 1007.0 0.0
10/06:00am 25.6 26.0 14.7 51 6.7 SSW 6 7 3 4 1013.0 1006.8 0.0
10/05:30am 24.9 25.1 14.7 53 6.3 S 7 9 4 5 1012.6 1006.4 0.0
10/05:00am 25.1 25.4 14.9 53 6.3 S 7 9 4 5 1012.4 1006.2 0.0
10/04:30am 25.3 24.9 15.3 54 6.2 S 11 11 6 6 1012.1 1005.8 0.0
10/04:00am 25.3 26.3 15.3 54 6.2 SSW 4 6 2 3 1011.6 1005.4 0.0
10/03:30am 25.4 26.6 14.8 52 6.5 WNW 2 13 1 7 1011.5 1005.3 0.0
10/03:00am 26.5 26.7 14.6 48 7.4 WNW 7 9 4 5 1011.4 1005.2 0.0
10/02:30am 27.5 28.5 14.2 44 8.2 WNW 2 6 1 3 1011.5 1005.3 0.0
10/02:00am 28.5 28.2 15.4 45 8.3 WNW 11 15 6 8 1011.5 1005.3 0.0
10/01:30am 28.6 29.0 15.2 44 8.4 W 7 9 4 5 1011.7 1005.5 0.0
10/01:00am 29.2 28.8 14.2 40 9.3 W 9 20 5 11 1011.6 1005.4 0.0
10/12:30am 29.3 28.9 12.3 35 10.2 NW 6 9 3 5 1011.7 1005.5 0.0
10/12:00am 29.4 30.0 11.9 34 10.5 CALM 0 0 0 0 1011.9 1005.7 0.0
 
Date/Time
WST
Temp
°C
App
Temp
°C
Dew
Point
°C
Rel
Hum
%
Delta-T
°C
Wind Press
QNH
hPa
Press
MSL
hPa
Rain since
9am
mm
Dir  Spd
km/h
Gust
km/h
Spd
kts
Gust
kts
09/11:30pm 29.1 29.4 12.1 35 10.2 NW 2 6 1 3 1012.2 1006.0 0.0
09/11:00pm 29.3 29.4 11.4 33 10.6 NW 2 7 1 4 1012.4 1006.2 0.0
09/10:30pm 30.6 29.3 12.5 33 11.0 NW 11 15 6 8 1012.5 1006.3 0.0

Other Formats:

Comma delimited format used in spreadsheet applications
http://www.bom.gov.au/fwo/IDW60801/IDW60801.99312.axf

JavaScript Object Notation format (JSON) in row-major order
http://www.bom.gov.au/fwo/IDW60801/IDW60801.99312.json